sensor_id;sensor_type;location;lat;lon;timestamp;temperature;humidity
20534;DHT22;12929;56.822;26.056;2023-10-09T00:00:13;2.50;99.90
20534;DHT22;12929;56.822;26.056;2023-10-09T00:03:00;2.40;99.90
20534;DHT22;12929;56.822;26.056;2023-10-09T00:05:28;2.40;99.90
20534;DHT22;12929;56.822;26.056;2023-10-09T00:08:07;2.40;99.90
20534;DHT22;12929;56.822;26.056;2023-10-09T00:10:36;2.40;99.90
20534;DHT22;12929;56.822;26.056;2023-10-09T00:13:12;2.40;99.90
20534;DHT22;12929;56.822;26.056;2023-10-09T00:15:40;2.40;99.90
20534;DHT22;12929;56.822;26.056;2023-10-09T00:18:09;2.40;99.90
20534;DHT22;12929;56.822;26.056;2023-10-09T00:20:39;2.30;99.90
20534;DHT22;12929;56.822;26.056;2023-10-09T00:23:10;2.40;99.90
20534;DHT22;12929;56.822;26.056;2023-10-09T00:25:49;2.40;99.90
20534;DHT22;12929;56.822;26.056;2023-10-09T00:28:38;2.30;99.90
20534;DHT22;12929;56.822;26.056;2023-10-09T00:31:10;2.30;99.90
20534;DHT22;12929;56.822;26.056;2023-10-09T00:33:53;2.40;99.90
20534;DHT22;12929;56.822;26.056;2023-10-09T00:36:23;2.30;99.90
20534;DHT22;12929;56.822;26.056;2023-10-09T00:38:55;2.20;99.90
20534;DHT22;12929;56.822;26.056;2023-10-09T00:41:26;2.20;99.90
20534;DHT22;12929;56.822;26.056;2023-10-09T00:43:56;2.30;99.90
20534;DHT22;12929;56.822;26.056;2023-10-09T00:46:27;2.20;99.90
20534;DHT22;12929;56.822;26.056;2023-10-09T00:48:57;2.00;99.90
20534;DHT22;12929;56.822;26.056;2023-10-09T00:51:29;2.10;99.90
20534;DHT22;12929;56.822;26.056;2023-10-09T00:54:05;2.10;99.90
20534;DHT22;12929;56.822;26.056;2023-10-09T00:56:41;2.10;99.90
20534;DHT22;12929;56.822;26.056;2023-10-09T00:59:20;2.30;99.90
20534;DHT22;12929;56.822;26.056;2023-10-09T01:01:49;2.20;99.90
20534;DHT22;12929;56.822;26.056;2023-10-09T01:04:31;2.30;99.90
20534;DHT22;12929;56.822;26.056;2023-10-09T01:06:59;2.10;99.90
20534;DHT22;12929;56.822;26.056;2023-10-09T01:09:42;2.20;99.90
20534;DHT22;12929;56.822;26.056;2023-10-09T01:12:12;2.20;99.90
20534;DHT22;12929;56.822;26.056;2023-10-09T01:14:48;2.20;99.90
20534;DHT22;12929;56.822;26.056;2023-10-09T01:17:22;2.20;99.90
20534;DHT22;12929;56.822;26.056;2023-10-09T01:20:12;2.20;99.90
20534;DHT22;12929;56.822;26.056;2023-10-09T01:22:44;2.10;99.90
20534;DHT22;12929;56.822;26.056;2023-10-09T01:25:11;2.10;99.90
20534;DHT22;12929;56.822;26.056;2023-10-09T01:27:39;2.20;99.90
20534;DHT22;12929;56.822;26.056;2023-10-09T01:30:08;2.20;99.90
20534;DHT22;12929;56.822;26.056;2023-10-09T01:32:41;2.20;99.90
20534;DHT22;12929;56.822;26.056;2023-10-09T01:35:12;2.20;99.90
20534;DHT22;12929;56.822;26.056;2023-10-09T01:37:49;2.20;99.90
20534;DHT22;12929;56.822;26.056;2023-10-09T01:40:18;2.20;99.90
20534;DHT22;12929;56.822;26.056;2023-10-09T01:43:04;2.20;99.90
20534;DHT22;12929;56.822;26.056;2023-10-09T01:45:32;2.10;99.90
20534;DHT22;12929;56.822;26.056;2023-10-09T01:48:10;2.10;99.90
20534;DHT22;12929;56.822;26.056;2023-10-09T01:50:39;2.10;99.90
20534;DHT22;12929;56.822;26.056;2023-10-09T01:53:09;2.10;99.90
20534;DHT22;12929;56.822;26.056;2023-10-09T01:55:36;2.20;99.90
20534;DHT22;12929;56.822;26.056;2023-10-09T01:58:08;2.00;99.90
20534;DHT22;12929;56.822;26.056;2023-10-09T02:00:44;2.00;99.90
20534;DHT22;12929;56.822;26.056;2023-10-09T02:03:17;1.80;99.90
20534;DHT22;12929;56.822;26.056;2023-10-09T02:05:45;1.70;99.90
20534;DHT22;12929;56.822;26.056;2023-10-09T02:08:13;1.80;99.90
20534;DHT22;12929;56.822;26.056;2023-10-09T02:10:40;1.80;99.90
20534;DHT22;12929;56.822;26.056;2023-10-09T02:13:15;1.80;99.90
20534;DHT22;12929;56.822;26.056;2023-10-09T02:15:44;1.80;99.90
20534;DHT22;12929;56.822;26.056;2023-10-09T02:18:17;1.90;99.90
20534;DHT22;12929;56.822;26.056;2023-10-09T02:21:11;1.90;99.90
20534;DHT22;12929;56.822;26.056;2023-10-09T02:23:39;2.00;99.90
20534;DHT22;12929;56.822;26.056;2023-10-09T02:26:14;1.90;99.90
20534;DHT22;12929;56.822;26.056;2023-10-09T02:29:00;1.90;99.90
20534;DHT22;12929;56.822;26.056;2023-10-09T02:31:32;2.00;99.90
20534;DHT22;12929;56.822;26.056;2023-10-09T02:34:08;2.00;99.90
20534;DHT22;12929;56.822;26.056;2023-10-09T02:36:38;1.90;99.90
20534;DHT22;12929;56.822;26.056;2023-10-09T02:39:10;2.00;99.90
20534;DHT22;12929;56.822;26.056;2023-10-09T02:41:57;1.90;99.90
20534;DHT22;12929;56.822;26.056;2023-10-09T02:44:29;2.00;99.90
20534;DHT22;12929;56.822;26.056;2023-10-09T02:47:06;1.80;99.90
20534;DHT22;12929;56.822;26.056;2023-10-09T02:49:45;1.90;99.90
20534;DHT22;12929;56.822;26.056;2023-10-09T02:52:16;2.00;99.90
20534;DHT22;12929;56.822;26.056;2023-10-09T02:54:56;1.90;99.90
20534;DHT22;12929;56.822;26.056;2023-10-09T02:57:27;1.90;99.90
20534;DHT22;12929;56.822;26.056;2023-10-09T03:00:04;1.70;99.90
20534;DHT22;12929;56.822;26.056;2023-10-09T03:02:47;1.80;99.90
20534;DHT22;12929;56.822;26.056;2023-10-09T03:05:17;1.80;99.90
20534;DHT22;12929;56.822;26.056;2023-10-09T03:07:45;1.80;99.90
20534;DHT22;12929;56.822;26.056;2023-10-09T03:10:13;1.90;99.90
20534;DHT22;12929;56.822;26.056;2023-10-09T03:12:40;1.90;99.90
20534;DHT22;12929;56.822;26.056;2023-10-09T03:15:10;1.90;99.90
20534;DHT22;12929;56.822;26.056;2023-10-09T03:17:38;1.90;99.90
20534;DHT22;12929;56.822;26.056;2023-10-09T03:20:07;1.80;99.90
20534;DHT22;12929;56.822;26.056;2023-10-09T03:22:41;1.70;99.90
20534;DHT22;12929;56.822;26.056;2023-10-09T03:25:09;1.60;99.90
20534;DHT22;12929;56.822;26.056;2023-10-09T03:27:42;1.80;99.90
20534;DHT22;12929;56.822;26.056;2023-10-09T03:30:13;1.70;99.90
20534;DHT22;12929;56.822;26.056;2023-10-09T03:32:44;1.70;99.90
20534;DHT22;12929;56.822;26.056;2023-10-09T03:35:18;1.70;99.90
20534;DHT22;12929;56.822;26.056;2023-10-09T03:37:53;1.60;99.90
20534;DHT22;12929;56.822;26.056;2023-10-09T03:40:24;1.60;99.90
20534;DHT22;12929;56.822;26.056;2023-10-09T03:42:52;1.60;99.90
20534;DHT22;12929;56.822;26.056;2023-10-09T03:45:20;1.70;99.90
20534;DHT22;12929;56.822;26.056;2023-10-09T03:47:55;1.80;99.90
20534;DHT22;12929;56.822;26.056;2023-10-09T03:50:29;1.70;99.90
20534;DHT22;12929;56.822;26.056;2023-10-09T03:53:05;1.60;99.90
20534;DHT22;12929;56.822;26.056;2023-10-09T03:55:36;1.60;99.90
20534;DHT22;12929;56.822;26.056;2023-10-09T03:58:07;1.70;99.90
20534;DHT22;12929;56.822;26.056;2023-10-09T04:00:39;1.80;99.90
20534;DHT22;12929;56.822;26.056;2023-10-09T04:03:16;1.60;99.90
20534;DHT22;12929;56.822;26.056;2023-10-09T04:05:44;1.40;99.90
20534;DHT22;12929;56.822;26.056;2023-10-09T04:08:12;1.30;99.90
20534;DHT22;12929;56.822;26.056;2023-10-09T04:10:56;1.40;99.90
20534;DHT22;12929;56.822;26.056;2023-10-09T04:13:30;1.50;99.90
20534;DHT22;12929;56.822;26.056;2023-10-09T04:16:02;1.30;99.90
20534;DHT22;12929;56.822;26.056;2023-10-09T04:18:48;1.30;99.90
20534;DHT22;12929;56.822;26.056;2023-10-09T04:21:16;1.20;99.90
20534;DHT22;12929;56.822;26.056;2023-10-09T04:23:51;1.30;99.90
20534;DHT22;12929;56.822;26.056;2023-10-09T04:26:37;1.50;99.90
20534;DHT22;12929;56.822;26.056;2023-10-09T04:29:07;1.40;99.90
20534;DHT22;12929;56.822;26.056;2023-10-09T04:31:38;1.20;99.90
20534;DHT22;12929;56.822;26.056;2023-10-09T04:34:05;1.10;99.90
20534;DHT22;12929;56.822;26.056;2023-10-09T04:36:51;1.30;99.90
20534;DHT22;12929;56.822;26.056;2023-10-09T04:39:24;1.30;99.90
20534;DHT22;12929;56.822;26.056;2023-10-09T04:41:58;1.30;99.90
20534;DHT22;12929;56.822;26.056;2023-10-09T04:44:45;1.20;99.90
20534;DHT22;12929;56.822;26.056;2023-10-09T04:47:37;1.30;99.90
20534;DHT22;12929;56.822;26.056;2023-10-09T04:50:09;1.30;99.90
20534;DHT22;12929;56.822;26.056;2023-10-09T04:52:42;1.30;99.90
20534;DHT22;12929;56.822;26.056;2023-10-09T04:55:09;1.30;99.90
20534;DHT22;12929;56.822;26.056;2023-10-09T04:57:38;1.40;99.90
20534;DHT22;12929;56.822;26.056;2023-10-09T05:00:28;1.40;99.90
20534;DHT22;12929;56.822;26.056;2023-10-09T05:02:58;1.40;99.90
20534;DHT22;12929;56.822;26.056;2023-10-09T05:05:32;1.60;99.90
20534;DHT22;12929;56.822;26.056;2023-10-09T05:08:11;1.60;99.90
20534;DHT22;12929;56.822;26.056;2023-10-09T05:10:56;1.60;99.90
20534;DHT22;12929;56.822;26.056;2023-10-09T05:13:35;1.60;99.90
20534;DHT22;12929;56.822;26.056;2023-10-09T05:16:11;1.60;99.90
20534;DHT22;12929;56.822;26.056;2023-10-09T05:18:56;1.70;99.90
20534;DHT22;12929;56.822;26.056;2023-10-09T05:21:30;1.70;99.90
20534;DHT22;12929;56.822;26.056;2023-10-09T05:24:03;1.60;99.90
20534;DHT22;12929;56.822;26.056;2023-10-09T05:29:26;1.50;99.90
20534;DHT22;12929;56.822;26.056;2023-10-09T05:32:00;1.50;99.90
20534;DHT22;12929;56.822;26.056;2023-10-09T05:34:32;1.60;99.90
20534;DHT22;12929;56.822;26.056;2023-10-09T05:37:18;1.70;99.90
20534;DHT22;12929;56.822;26.056;2023-10-09T05:40:05;1.70;99.90
20534;DHT22;12929;56.822;26.056;2023-10-09T05:42:46;1.70;99.90
20534;DHT22;12929;56.822;26.056;2023-10-09T05:45:26;1.70;99.90
20534;DHT22;12929;56.822;26.056;2023-10-09T05:48:13;1.80;99.90
20534;DHT22;12929;56.822;26.056;2023-10-09T05:50:40;1.80;99.90
20534;DHT22;12929;56.822;26.056;2023-10-09T05:53:27;1.80;99.90
20534;DHT22;12929;56.822;26.056;2023-10-09T05:56:12;1.90;99.90
20534;DHT22;12929;56.822;26.056;2023-10-09T05:58:59;1.80;99.90
20534;DHT22;12929;56.822;26.056;2023-10-09T06:01:45;1.80;99.90
20534;DHT22;12929;56.822;26.056;2023-10-09T06:04:24;1.90;99.90
20534;DHT22;12929;56.822;26.056;2023-10-09T06:07:12;1.90;99.90
20534;DHT22;12929;56.822;26.056;2023-10-09T06:09:41;1.90;99.90
20534;DHT22;12929;56.822;26.056;2023-10-09T06:12:24;1.90;99.90
20534;DHT22;12929;56.822;26.056;2023-10-09T06:15:01;2.00;99.90
20534;DHT22;12929;56.822;26.056;2023-10-09T06:17:57;2.00;99.90
20534;DHT22;12929;56.822;26.056;2023-10-09T06:20:45;2.00;99.90
20534;DHT22;12929;56.822;26.056;2023-10-09T06:23:36;2.10;99.90
20534;DHT22;12929;56.822;26.056;2023-10-09T06:26:29;2.10;99.90
20534;DHT22;12929;56.822;26.056;2023-10-09T06:29:00;2.20;99.90
20534;DHT22;12929;56.822;26.056;2023-10-09T06:31:43;2.20;99.90
20534;DHT22;12929;56.822;26.056;2023-10-09T06:34:28;2.30;99.90
20534;DHT22;12929;56.822;26.056;2023-10-09T06:37:03;2.40;99.90
20534;DHT22;12929;56.822;26.056;2023-10-09T06:39:45;2.40;99.90
20534;DHT22;12929;56.822;26.056;2023-10-09T06:42:38;2.40;99.90
20534;DHT22;12929;56.822;26.056;2023-10-09T06:45:10;2.50;99.90
20534;DHT22;12929;56.822;26.056;2023-10-09T06:47:42;2.50;99.90
20534;DHT22;12929;56.822;26.056;2023-10-09T06:50:20;2.50;99.90
20534;DHT22;12929;56.822;26.056;2023-10-09T06:52:48;2.50;99.90
20534;DHT22;12929;56.822;26.056;2023-10-09T06:55:54;2.60;99.90
20534;DHT22;12929;56.822;26.056;2023-10-09T06:58:42;2.60;99.90
20534;DHT22;12929;56.822;26.056;2023-10-09T07:01:10;2.60;99.90
20534;DHT22;12929;56.822;26.056;2023-10-09T07:03:56;2.70;99.90
20534;DHT22;12929;56.822;26.056;2023-10-09T07:06:42;2.70;99.90
20534;DHT22;12929;56.822;26.056;2023-10-09T07:09:10;2.70;99.90
20534;DHT22;12929;56.822;26.056;2023-10-09T07:11:43;2.70;99.90
20534;DHT22;12929;56.822;26.056;2023-10-09T07:14:18;2.80;99.90
20534;DHT22;12929;56.822;26.056;2023-10-09T07:17:07;2.90;99.90
20534;DHT22;12929;56.822;26.056;2023-10-09T07:19:44;2.90;99.90
20534;DHT22;12929;56.822;26.056;2023-10-09T07:22:15;2.90;99.90
20534;DHT22;12929;56.822;26.056;2023-10-09T07:24:50;2.90;99.90
20534;DHT22;12929;56.822;26.056;2023-10-09T07:27:30;3.00;99.90
20534;DHT22;12929;56.822;26.056;2023-10-09T07:30:20;3.00;99.90
20534;DHT22;12929;56.822;26.056;2023-10-09T07:35:34;3.00;99.90
20534;DHT22;12929;56.822;26.056;2023-10-09T07:38:11;3.00;99.90
20534;DHT22;12929;56.822;26.056;2023-10-09T07:40:41;2.90;99.90
20534;DHT22;12929;56.822;26.056;2023-10-09T07:43:47;3.00;99.90
20534;DHT22;12929;56.822;26.056;2023-10-09T07:46:16;3.00;99.90
20534;DHT22;12929;56.822;26.056;2023-10-09T07:49:19;2.90;99.90
20534;DHT22;12929;56.822;26.056;2023-10-09T07:51:52;3.00;99.90
20534;DHT22;12929;56.822;26.056;2023-10-09T07:54:20;3.00;99.90
20534;DHT22;12929;56.822;26.056;2023-10-09T07:57:08;3.00;99.90
20534;DHT22;12929;56.822;26.056;2023-10-09T07:59:44;3.20;99.90
20534;DHT22;12929;56.822;26.056;2023-10-09T08:02:38;3.40;99.90
20534;DHT22;12929;56.822;26.056;2023-10-09T08:05:07;3.30;99.90
20534;DHT22;12929;56.822;26.056;2023-10-09T08:07:46;3.30;99.90
20534;DHT22;12929;56.822;26.056;2023-10-09T08:11:03;3.30;99.90
20534;DHT22;12929;56.822;26.056;2023-10-09T08:13:49;3.10;99.90
20534;DHT22;12929;56.822;26.056;2023-10-09T08:16:16;3.20;99.90
20534;DHT22;12929;56.822;26.056;2023-10-09T08:18:54;3.20;99.90
20534;DHT22;12929;56.822;26.056;2023-10-09T08:21:25;3.30;99.90
20534;DHT22;12929;56.822;26.056;2023-10-09T08:24:30;3.40;99.90
20534;DHT22;12929;56.822;26.056;2023-10-09T08:27:28;3.50;99.90
20534;DHT22;12929;56.822;26.056;2023-10-09T08:30:00;3.60;99.90
20534;DHT22;12929;56.822;26.056;2023-10-09T08:32:48;3.60;99.90
20534;DHT22;12929;56.822;26.056;2023-10-09T08:35:36;3.60;99.90
20534;DHT22;12929;56.822;26.056;2023-10-09T08:38:16;3.60;99.90
20534;DHT22;12929;56.822;26.056;2023-10-09T08:40:51;3.60;99.90
20534;DHT22;12929;56.822;26.056;2023-10-09T08:43:26;3.60;99.90
20534;DHT22;12929;56.822;26.056;2023-10-09T08:46:00;3.60;99.90
20534;DHT22;12929;56.822;26.056;2023-10-09T08:48:29;3.60;99.90
20534;DHT22;12929;56.822;26.056;2023-10-09T08:50:57;3.60;99.90
20534;DHT22;12929;56.822;26.056;2023-10-09T08:53:27;3.50;99.90
20534;DHT22;12929;56.822;26.056;2023-10-09T08:55:59;3.60;99.90
20534;DHT22;12929;56.822;26.056;2023-10-09T08:58:26;3.60;99.90
20534;DHT22;12929;56.822;26.056;2023-10-09T09:01:00;3.70;99.90
20534;DHT22;12929;56.822;26.056;2023-10-09T09:03:41;3.70;99.90
20534;DHT22;12929;56.822;26.056;2023-10-09T09:06:11;3.70;99.90
20534;DHT22;12929;56.822;26.056;2023-10-09T09:08:42;3.80;99.90
20534;DHT22;12929;56.822;26.056;2023-10-09T09:11:13;3.90;99.90
20534;DHT22;12929;56.822;26.056;2023-10-09T09:16:22;3.80;99.90
20534;DHT22;12929;56.822;26.056;2023-10-09T09:19:02;3.90;99.90
20534;DHT22;12929;56.822;26.056;2023-10-09T09:21:33;3.90;99.90
20534;DHT22;12929;56.822;26.056;2023-10-09T09:24:10;3.80;99.90
20534;DHT22;12929;56.822;26.056;2023-10-09T09:26:52;3.80;99.90
20534;DHT22;12929;56.822;26.056;2023-10-09T09:32:09;3.90;99.90
20534;DHT22;12929;56.822;26.056;2023-10-09T09:34:49;4.00;99.90
20534;DHT22;12929;56.822;26.056;2023-10-09T09:37:21;4.00;99.90
20534;DHT22;12929;56.822;26.056;2023-10-09T09:39:52;4.00;99.90
20534;DHT22;12929;56.822;26.056;2023-10-09T09:42:23;4.00;99.90
20534;DHT22;12929;56.822;26.056;2023-10-09T09:44:55;4.00;99.90
20534;DHT22;12929;56.822;26.056;2023-10-09T09:47:24;4.20;99.90
20534;DHT22;12929;56.822;26.056;2023-10-09T09:49:57;4.30;99.90
20534;DHT22;12929;56.822;26.056;2023-10-09T09:52:30;4.30;99.90
20534;DHT22;12929;56.822;26.056;2023-10-09T09:55:09;4.40;99.90
20534;DHT22;12929;56.822;26.056;2023-10-09T09:57:50;4.40;99.90
20534;DHT22;12929;56.822;26.056;2023-10-09T10:00:22;4.40;99.90
20534;DHT22;12929;56.822;26.056;2023-10-09T10:03:31;4.60;99.90
20534;DHT22;12929;56.822;26.056;2023-10-09T10:06:05;4.70;99.90
20534;DHT22;12929;56.822;26.056;2023-10-09T10:08:37;4.70;99.90
20534;DHT22;12929;56.822;26.056;2023-10-09T10:11:06;4.70;99.90
20534;DHT22;12929;56.822;26.056;2023-10-09T10:16:12;4.60;99.90
20534;DHT22;12929;56.822;26.056;2023-10-09T10:19:01;4.60;99.90
20534;DHT22;12929;56.822;26.056;2023-10-09T10:21:49;4.60;99.90
20534;DHT22;12929;56.822;26.056;2023-10-09T10:35:20;4.70;99.90
20534;DHT22;12929;56.822;26.056;2023-10-09T10:37:59;4.80;99.90
20534;DHT22;12929;56.822;26.056;2023-10-09T10:40:36;4.80;99.90
20534;DHT22;12929;56.822;26.056;2023-10-09T10:43:15;4.80;99.90
20534;DHT22;12929;56.822;26.056;2023-10-09T10:46:07;4.80;99.90
20534;DHT22;12929;56.822;26.056;2023-10-09T10:48:56;4.80;99.90
20534;DHT22;12929;56.822;26.056;2023-10-09T10:51:27;4.90;99.90
20534;DHT22;12929;56.822;26.056;2023-10-09T10:54:25;5.00;99.90
20534;DHT22;12929;56.822;26.056;2023-10-09T10:57:01;5.10;99.90
20534;DHT22;12929;56.822;26.056;2023-10-09T10:59:30;5.00;99.90
20534;DHT22;12929;56.822;26.056;2023-10-09T11:02:10;5.20;99.90
20534;DHT22;12929;56.822;26.056;2023-10-09T11:04:45;5.30;99.90
20534;DHT22;12929;56.822;26.056;2023-10-09T11:07:21;5.30;99.90
20534;DHT22;12929;56.822;26.056;2023-10-09T11:09:55;5.40;99.90
20534;DHT22;12929;56.822;26.056;2023-10-09T11:12:45;5.20;99.90
20534;DHT22;12929;56.822;26.056;2023-10-09T11:15:36;5.20;99.90
20534;DHT22;12929;56.822;26.056;2023-10-09T11:18:15;5.10;99.90
20534;DHT22;12929;56.822;26.056;2023-10-09T11:20:56;5.00;99.90
20534;DHT22;12929;56.822;26.056;2023-10-09T11:23:47;5.00;99.90
20534;DHT22;12929;56.822;26.056;2023-10-09T11:26:18;4.90;99.90
20534;DHT22;12929;56.822;26.056;2023-10-09T11:32:00;4.90;99.90
20534;DHT22;12929;56.822;26.056;2023-10-09T11:34:28;4.80;99.90
20534;DHT22;12929;56.822;26.056;2023-10-09T11:37:01;4.80;99.90
20534;DHT22;12929;56.822;26.056;2023-10-09T11:39:31;4.70;99.90
20534;DHT22;12929;56.822;26.056;2023-10-09T11:42:06;4.70;99.90
20534;DHT22;12929;56.822;26.056;2023-10-09T11:44:40;4.60;99.90
20534;DHT22;12929;56.822;26.056;2023-10-09T11:47:08;4.60;99.90
20534;DHT22;12929;56.822;26.056;2023-10-09T11:49:58;4.50;99.90
20534;DHT22;12929;56.822;26.056;2023-10-09T11:52:29;4.60;99.90
20534;DHT22;12929;56.822;26.056;2023-10-09T11:55:06;4.60;99.90
20534;DHT22;12929;56.822;26.056;2023-10-09T11:57:43;4.60;99.90
20534;DHT22;12929;56.822;26.056;2023-10-09T12:00:11;4.60;99.90
20534;DHT22;12929;56.822;26.056;2023-10-09T12:02:58;4.60;99.90
20534;DHT22;12929;56.822;26.056;2023-10-09T12:05:32;4.60;99.90
20534;DHT22;12929;56.822;26.056;2023-10-09T12:08:02;4.60;99.90
20534;DHT22;12929;56.822;26.056;2023-10-09T12:10:30;4.60;99.90
20534;DHT22;12929;56.822;26.056;2023-10-09T12:12:57;4.60;99.90
20534;DHT22;12929;56.822;26.056;2023-10-09T12:15:25;4.60;99.90
20534;DHT22;12929;56.822;26.056;2023-10-09T12:18:08;4.60;99.90
20534;DHT22;12929;56.822;26.056;2023-10-09T12:20:45;4.60;99.90
20534;DHT22;12929;56.822;26.056;2023-10-09T12:23:22;4.60;99.90
20534;DHT22;12929;56.822;26.056;2023-10-09T12:25:50;4.60;99.90
20534;DHT22;12929;56.822;26.056;2023-10-09T12:28:18;4.60;99.90
20534;DHT22;12929;56.822;26.056;2023-10-09T12:30:48;4.70;99.90
20534;DHT22;12929;56.822;26.056;2023-10-09T12:33:20;4.70;99.90
20534;DHT22;12929;56.822;26.056;2023-10-09T12:35:55;4.80;99.90
20534;DHT22;12929;56.822;26.056;2023-10-09T12:38:29;4.80;99.90
20534;DHT22;12929;56.822;26.056;2023-10-09T12:41:09;4.80;99.90
20534;DHT22;12929;56.822;26.056;2023-10-09T12:43:54;4.80;99.90
20534;DHT22;12929;56.822;26.056;2023-10-09T12:46:22;4.80;99.90
20534;DHT22;12929;56.822;26.056;2023-10-09T12:48:50;4.80;99.90
20534;DHT22;12929;56.822;26.056;2023-10-09T12:51:22;4.70;99.90
20534;DHT22;12929;56.822;26.056;2023-10-09T12:53:57;4.60;99.90
20534;DHT22;12929;56.822;26.056;2023-10-09T12:56:26;4.70;99.90
20534;DHT22;12929;56.822;26.056;2023-10-09T12:59:00;4.70;99.90
20534;DHT22;12929;56.822;26.056;2023-10-09T13:01:29;4.70;99.90
20534;DHT22;12929;56.822;26.056;2023-10-09T13:04:15;4.60;99.90
20534;DHT22;12929;56.822;26.056;2023-10-09T13:06:45;4.80;99.90
20534;DHT22;12929;56.822;26.056;2023-10-09T13:09:17;4.80;99.90
20534;DHT22;12929;56.822;26.056;2023-10-09T13:11:52;5.10;99.90
20534;DHT22;12929;56.822;26.056;2023-10-09T13:14:19;5.50;99.90
20534;DHT22;12929;56.822;26.056;2023-10-09T13:16:49;5.80;99.90
20534;DHT22;12929;56.822;26.056;2023-10-09T13:19:22;6.00;99.90
20534;DHT22;12929;56.822;26.056;2023-10-09T13:21:51;6.10;99.90
20534;DHT22;12929;56.822;26.056;2023-10-09T13:24:19;6.10;99.90
20534;DHT22;12929;56.822;26.056;2023-10-09T13:26:51;6.10;99.90
20534;DHT22;12929;56.822;26.056;2023-10-09T13:29:20;6.00;99.90
20534;DHT22;12929;56.822;26.056;2023-10-09T13:31:51;6.00;99.90
20534;DHT22;12929;56.822;26.056;2023-10-09T13:34:25;6.10;99.90
20534;DHT22;12929;56.822;26.056;2023-10-09T13:36:56;6.00;99.90
20534;DHT22;12929;56.822;26.056;2023-10-09T13:39:26;6.10;99.90
20534;DHT22;12929;56.822;26.056;2023-10-09T13:41:58;6.10;99.90
20534;DHT22;12929;56.822;26.056;2023-10-09T13:44:28;5.90;99.90
20534;DHT22;12929;56.822;26.056;2023-10-09T13:47:05;6.10;99.90
20534;DHT22;12929;56.822;26.056;2023-10-09T13:49:33;6.20;99.90
20534;DHT22;12929;56.822;26.056;2023-10-09T13:52:03;6.00;99.90
20534;DHT22;12929;56.822;26.056;2023-10-09T13:54:33;5.80;99.90
20534;DHT22;12929;56.822;26.056;2023-10-09T13:57:03;5.60;99.90
20534;DHT22;12929;56.822;26.056;2023-10-09T13:59:35;5.40;99.90
20534;DHT22;12929;56.822;26.056;2023-10-09T14:02:04;5.20;99.90
20534;DHT22;12929;56.822;26.056;2023-10-09T14:04:48;5.10;99.90
20534;DHT22;12929;56.822;26.056;2023-10-09T14:07:17;5.10;99.90
20534;DHT22;12929;56.822;26.056;2023-10-09T14:09:45;5.10;99.90
20534;DHT22;12929;56.822;26.056;2023-10-09T14:12:23;5.20;99.90
20534;DHT22;12929;56.822;26.056;2023-10-09T14:14:52;5.00;99.90
20534;DHT22;12929;56.822;26.056;2023-10-09T14:17:23;4.90;99.90
20534;DHT22;12929;56.822;26.056;2023-10-09T14:19:52;4.90;99.90
20534;DHT22;12929;56.822;26.056;2023-10-09T14:22:22;4.90;99.90
20534;DHT22;12929;56.822;26.056;2023-10-09T14:24:54;4.80;99.90
20534;DHT22;12929;56.822;26.056;2023-10-09T14:27:27;4.80;99.90
20534;DHT22;12929;56.822;26.056;2023-10-09T14:29:57;4.90;99.90
20534;DHT22;12929;56.822;26.056;2023-10-09T14:32:28;4.90;99.90
20534;DHT22;12929;56.822;26.056;2023-10-09T14:35:11;4.90;99.90
20534;DHT22;12929;56.822;26.056;2023-10-09T14:37:41;4.90;99.90
20534;DHT22;12929;56.822;26.056;2023-10-09T14:40:09;4.90;99.90
20534;DHT22;12929;56.822;26.056;2023-10-09T14:42:40;4.90;99.90
20534;DHT22;12929;56.822;26.056;2023-10-09T14:45:13;4.90;99.90
20534;DHT22;12929;56.822;26.056;2023-10-09T14:47:44;4.90;99.90
20534;DHT22;12929;56.822;26.056;2023-10-09T14:50:15;4.90;99.90
20534;DHT22;12929;56.822;26.056;2023-10-09T14:52:43;4.80;99.90
20534;DHT22;12929;56.822;26.056;2023-10-09T14:55:10;4.80;99.90
20534;DHT22;12929;56.822;26.056;2023-10-09T14:57:39;4.80;99.90
20534;DHT22;12929;56.822;26.056;2023-10-09T15:00:07;4.90;99.90
20534;DHT22;12929;56.822;26.056;2023-10-09T15:02:37;4.90;99.90
20534;DHT22;12929;56.822;26.056;2023-10-09T15:05:06;4.90;99.90
20534;DHT22;12929;56.822;26.056;2023-10-09T15:07:38;4.80;99.90
20534;DHT22;12929;56.822;26.056;2023-10-09T15:10:11;4.90;99.90
20534;DHT22;12929;56.822;26.056;2023-10-09T15:12:42;4.90;99.90
20534;DHT22;12929;56.822;26.056;2023-10-09T15:15:10;4.80;99.90
20534;DHT22;12929;56.822;26.056;2023-10-09T15:17:42;4.70;99.90
20534;DHT22;12929;56.822;26.056;2023-10-09T15:20:15;4.60;99.90
20534;DHT22;12929;56.822;26.056;2023-10-09T15:22:43;4.70;99.90
20534;DHT22;12929;56.822;26.056;2023-10-09T15:25:11;4.60;99.90
20534;DHT22;12929;56.822;26.056;2023-10-09T15:27:43;4.60;99.90
20534;DHT22;12929;56.822;26.056;2023-10-09T15:30:11;4.70;99.90
20534;DHT22;12929;56.822;26.056;2023-10-09T15:32:44;4.60;99.90
20534;DHT22;12929;56.822;26.056;2023-10-09T15:35:12;4.60;99.90
20534;DHT22;12929;56.822;26.056;2023-10-09T15:37:42;4.60;99.90
20534;DHT22;12929;56.822;26.056;2023-10-09T15:40:11;4.60;99.90
20534;DHT22;12929;56.822;26.056;2023-10-09T15:42:43;4.70;99.90
20534;DHT22;12929;56.822;26.056;2023-10-09T15:45:18;4.70;99.90
20534;DHT22;12929;56.822;26.056;2023-10-09T15:47:49;4.70;99.90
20534;DHT22;12929;56.822;26.056;2023-10-09T15:50:20;4.70;99.90
20534;DHT22;12929;56.822;26.056;2023-10-09T15:52:54;4.70;99.90
20534;DHT22;12929;56.822;26.056;2023-10-09T15:55:22;4.70;99.90
20534;DHT22;12929;56.822;26.056;2023-10-09T15:57:53;4.70;99.90
20534;DHT22;12929;56.822;26.056;2023-10-09T16:00:22;4.70;99.90
20534;DHT22;12929;56.822;26.056;2023-10-09T16:02:56;4.70;99.90
20534;DHT22;12929;56.822;26.056;2023-10-09T16:05:24;4.70;99.90
20534;DHT22;12929;56.822;26.056;2023-10-09T16:07:54;4.60;99.90
20534;DHT22;12929;56.822;26.056;2023-10-09T16:10:22;4.60;99.90
20534;DHT22;12929;56.822;26.056;2023-10-09T16:12:50;4.50;99.90
20534;DHT22;12929;56.822;26.056;2023-10-09T16:15:21;4.40;99.90
20534;DHT22;12929;56.822;26.056;2023-10-09T16:17:52;4.40;99.90
20534;DHT22;12929;56.822;26.056;2023-10-09T16:20:33;4.40;99.90
20534;DHT22;12929;56.822;26.056;2023-10-09T16:23:04;4.30;99.90
20534;DHT22;12929;56.822;26.056;2023-10-09T16:25:32;4.40;99.90
20534;DHT22;12929;56.822;26.056;2023-10-09T16:28:03;4.50;99.90
20534;DHT22;12929;56.822;26.056;2023-10-09T16:30:31;4.50;99.90
20534;DHT22;12929;56.822;26.056;2023-10-09T16:32:59;4.40;99.90
20534;DHT22;12929;56.822;26.056;2023-10-09T16:35:28;4.40;99.90
20534;DHT22;12929;56.822;26.056;2023-10-09T16:37:55;4.50;99.90
20534;DHT22;12929;56.822;26.056;2023-10-09T16:40:23;4.50;99.90
20534;DHT22;12929;56.822;26.056;2023-10-09T16:42:51;4.40;99.90
20534;DHT22;12929;56.822;26.056;2023-10-09T16:45:21;4.50;99.90